createdAt,value
2022-07-28T00:01:54.827Z,101655.38
2022-07-28T00:04:40.421Z,101663.25
2022-07-28T00:07:26.327Z,101661.81
2022-07-28T00:10:12.803Z,101666.69
2022-07-28T00:12:59.680Z,101674.00
2022-07-28T00:15:45.143Z,101651.78
2022-07-28T00:18:30.648Z,101656.03
2022-07-28T00:21:16.229Z,101638.97
2022-07-28T00:24:01.861Z,101667.56
2022-07-28T00:26:47.229Z,101660.69
2022-07-28T00:29:49.850Z,101652.13
2022-07-28T00:32:36.033Z,101666.09
2022-07-28T00:35:30.253Z,101660.34
2022-07-28T00:38:16.664Z,101655.09
2022-07-28T00:41:12.703Z,101657.44
2022-07-28T00:43:58.061Z,101663.53
2022-07-28T00:46:44.148Z,101648.31
2022-07-28T00:49:29.727Z,101673.44
2022-07-28T00:52:18.078Z,101679.34
2022-07-28T00:55:05.317Z,101680.53
2022-07-28T00:57:50.798Z,101688.75
2022-07-28T01:00:36.325Z,101675.28
2022-07-28T01:03:22.704Z,101692.53
2022-07-28T01:06:26.818Z,101696.31
2022-07-28T01:09:48.966Z,101694.09
2022-07-28T01:12:55.627Z,101682.91
2022-07-28T01:15:48.454Z,101688.91
2022-07-28T01:18:43.098Z,101692.28
2022-07-28T01:21:35.058Z,101673.50
2022-07-28T01:24:27.426Z,101692.34
2022-07-28T01:27:29.678Z,101676.69
2022-07-28T01:30:27.837Z,101699.09
2022-07-28T01:33:21.610Z,101700.69
2022-07-28T01:36:12.962Z,101682.44
2022-07-28T01:39:00.399Z,101689.34
2022-07-28T01:41:47.538Z,101695.56
2022-07-28T01:44:37.369Z,101687.72
2022-07-28T01:47:24.422Z,101703.59
2022-07-28T01:50:13.150Z,101698.34
2022-07-28T01:52:59.147Z,101700.09
2022-07-28T01:55:46.125Z,101703.53
2022-07-28T01:58:34.075Z,101701.13
2022-07-28T02:01:21.216Z,101696.78
2022-07-28T02:04:08.068Z,101700.94
2022-07-28T02:06:55.559Z,101697.47
2022-07-28T02:09:44.073Z,101685.41
2022-07-28T02:12:31.730Z,101695.97
2022-07-28T02:15:18.887Z,101699.38
2022-07-28T02:18:05.844Z,101684.78
2022-07-28T02:20:53.005Z,101699.44
2022-07-28T02:23:41.122Z,101694.41
2022-07-28T02:26:32.554Z,101707.41
2022-07-28T02:29:49.328Z,101692.63
2022-07-28T02:32:48.397Z,101697.91
2022-07-28T02:35:37.648Z,101708.34
2022-07-28T02:38:30.807Z,101697.75
2022-07-28T02:41:25.597Z,101704.91
2022-07-28T02:44:17.569Z,101702.09
2022-07-28T02:47:07.463Z,101702.28
2022-07-28T02:49:55.334Z,101684.56
2022-07-28T02:52:43.657Z,101707.00
2022-07-28T02:55:30.988Z,101696.91
2022-07-28T02:58:20.960Z,101700.31
2022-07-28T03:01:07.004Z,101707.31
2022-07-28T03:03:55.199Z,101700.41
2022-07-28T03:06:41.820Z,101698.34
2022-07-28T03:09:28.831Z,101690.06
2022-07-28T03:12:14.974Z,101708.81
2022-07-28T03:15:00.166Z,101704.41
2022-07-28T03:17:45.579Z,101702.81
2022-07-28T03:20:31.830Z,101703.56
2022-07-28T03:23:17.441Z,101720.03
2022-07-28T03:26:09.859Z,101717.59
2022-07-28T03:28:57.586Z,101697.69
2022-07-28T03:31:47.184Z,101702.31
2022-07-28T03:34:32.533Z,101715.53
2022-07-28T03:37:23.605Z,101717.28
2022-07-28T03:40:11.161Z,101708.81
2022-07-28T03:42:59.504Z,101716.66
2022-07-28T03:45:46.839Z,101721.78
2022-07-28T03:48:34.657Z,101727.78
2022-07-28T03:51:20.340Z,101728.72
2022-07-28T03:54:05.945Z,101717.78
2022-07-28T03:56:51.239Z,101735.78
2022-07-28T03:59:36.776Z,101742.50
2022-07-28T04:02:23.342Z,101737.13
2022-07-28T04:05:13.253Z,101738.88
2022-07-28T04:07:58.765Z,101741.25
2022-07-28T04:10:44.078Z,101743.53
2022-07-28T04:13:31.948Z,101734.41
2022-07-28T04:16:17.432Z,101732.34
2022-07-28T04:19:03.689Z,101723.44
2022-07-28T04:21:49.213Z,101744.81
2022-07-28T04:24:34.580Z,101734.09
2022-07-28T04:27:20.134Z,101748.88
2022-07-28T04:30:08.699Z,101744.25
2022-07-28T04:32:56.045Z,101755.13
2022-07-28T04:35:41.772Z,101744.50
2022-07-28T04:38:27.153Z,101736.22
2022-07-28T04:41:12.514Z,101744.50
2022-07-28T04:43:59.460Z,101733.66
2022-07-28T04:46:45.068Z,101741.53
2022-07-28T04:49:30.636Z,101744.41
2022-07-28T04:52:21.980Z,101750.34
2022-07-28T04:55:07.910Z,101753.25
2022-07-28T04:57:53.253Z,101743.94
2022-07-28T05:00:39.930Z,101748.94
2022-07-28T05:03:25.361Z,101737.81
2022-07-28T05:06:10.809Z,101741.63
2022-07-28T05:08:56.152Z,101747.75
2022-07-28T05:11:42.231Z,101724.56
2022-07-28T05:14:28.050Z,101747.91
2022-07-28T05:17:13.658Z,101732.06
2022-07-28T05:19:59.600Z,101739.09
2022-07-28T05:22:48.205Z,101740.78
2022-07-28T05:25:33.683Z,101734.31
2022-07-28T05:28:18.966Z,101737.28
2022-07-28T05:31:04.624Z,101743.19
2022-07-28T05:33:50.258Z,101747.50
2022-07-28T05:36:37.558Z,101759.00
2022-07-28T05:39:24.378Z,101757.31
2022-07-28T05:42:09.942Z,101745.88
2022-07-28T05:44:55.577Z,101759.28
2022-07-28T05:47:52.478Z,101754.75
2022-07-28T05:50:37.987Z,101763.00
2022-07-28T05:53:24.685Z,101758.59
2022-07-28T05:56:10.024Z,101760.44
2022-07-28T05:58:55.758Z,101760.16
2022-07-28T06:01:41.147Z,101757.09
2022-07-28T06:04:27.872Z,101746.66
2022-07-28T06:07:13.738Z,101747.06
2022-07-28T06:09:59.269Z,101759.50
2022-07-28T06:12:50.279Z,101750.59
2022-07-28T06:15:35.612Z,101756.66
2022-07-28T06:18:22.302Z,101759.16
2022-07-28T06:21:07.605Z,101755.91
2022-07-28T06:23:53.253Z,101754.84
2022-07-28T06:26:44.384Z,101750.13
2022-07-28T06:29:30.334Z,101752.03
2022-07-28T06:32:17.026Z,101758.94
2022-07-28T06:35:02.835Z,101771.28
2022-07-28T06:37:49.652Z,101764.16
2022-07-28T06:40:35.696Z,101759.63
2022-07-28T06:43:21.296Z,101770.28
2022-07-28T06:46:07.370Z,101767.78
2022-07-28T06:48:53.208Z,101769.91
2022-07-28T06:51:38.996Z,101777.53
2022-07-28T06:54:24.295Z,101783.66
2022-07-28T06:57:09.924Z,101781.34
2022-07-28T06:59:55.277Z,101783.25
2022-07-28T07:02:42.700Z,101785.63
2022-07-28T07:05:31.841Z,101777.00
2022-07-28T07:08:17.240Z,101778.59
2022-07-28T07:11:02.649Z,101789.59
2022-07-28T07:13:48.332Z,101787.63
2022-07-28T07:16:35.086Z,101788.75
2022-07-28T07:19:21.595Z,101787.41
2022-07-28T07:22:07.186Z,101770.91
2022-07-28T07:24:56.818Z,101788.09
2022-07-28T07:27:43.892Z,101779.19
2022-07-28T07:30:29.741Z,101771.97
2022-07-28T07:33:15.583Z,101791.25
2022-07-28T07:36:01.077Z,101780.00
2022-07-28T07:38:46.573Z,101783.94
2022-07-28T07:41:31.936Z,101786.72
2022-07-28T07:44:18.154Z,101785.16
2022-07-28T07:47:04.101Z,101765.63
2022-07-28T07:49:49.563Z,101778.63
2022-07-28T07:52:35.332Z,101760.94
2022-07-28T07:55:20.909Z,101761.34
2022-07-28T07:58:06.607Z,101764.63
2022-07-28T08:00:53.184Z,101763.53
2022-07-28T08:03:39.059Z,101764.16
2022-07-28T08:06:26.634Z,101757.63
2022-07-28T08:09:12.374Z,101743.97
2022-07-28T08:11:58.011Z,101765.09
2022-07-28T08:14:43.757Z,101759.72
2022-07-28T08:17:33.726Z,101746.41
2022-07-28T08:20:19.337Z,101757.31
2022-07-28T08:23:04.852Z,101741.63
2022-07-28T08:25:50.600Z,101753.44
2022-07-28T08:28:36.214Z,101751.50
2022-07-28T08:31:22.174Z,101744.72
2022-07-28T08:34:26.376Z,101739.81
2022-07-28T08:37:13.184Z,101746.69
2022-07-28T08:39:58.600Z,101749.22
2022-07-28T08:42:50.296Z,101740.69
2022-07-28T08:45:37.324Z,101746.09
2022-07-28T08:48:23.495Z,101731.84
2022-07-28T08:51:11.276Z,101726.59
2022-07-28T08:53:57.385Z,101733.59
2022-07-28T08:56:47.906Z,101737.78
2022-07-28T08:59:34.744Z,101729.34
2022-07-28T09:02:20.554Z,101738.63
2022-07-28T09:05:06.691Z,101724.84
2022-07-28T09:07:55.463Z,101731.03
2022-07-28T09:10:41.404Z,101733.78
2022-07-28T09:13:27.257Z,101724.38
2022-07-28T09:16:15.075Z,101711.00
2022-07-28T09:19:00.698Z,101743.53
2022-07-28T09:21:46.239Z,101728.25
2022-07-28T09:24:39.711Z,101734.88
2022-07-28T09:27:25.394Z,101729.41
2022-07-28T09:30:12.074Z,101738.50
2022-07-28T09:33:42.962Z,101713.63
2022-07-28T09:36:38.585Z,101719.19
2022-07-28T09:39:32.026Z,101726.81
2022-07-28T09:42:20.837Z,101729.72
2022-07-28T09:45:24.824Z,101735.56
2022-07-28T09:48:14.654Z,101728.25
2022-07-28T09:51:12.629Z,101716.06
2022-07-28T09:54:13.522Z,101721.22
2022-07-28T09:56:59.657Z,101717.34
2022-07-28T09:59:50.687Z,101721.81
2022-07-28T10:02:41.099Z,101728.00
2022-07-28T10:05:40.943Z,101723.19
2022-07-28T10:08:43.509Z,101719.56
2022-07-28T10:11:30.483Z,101719.84
2022-07-28T10:14:18.570Z,101715.53
2022-07-28T10:17:06.297Z,101708.69
2022-07-28T10:19:54.239Z,101713.03
2022-07-28T10:22:43.405Z,101707.03
2022-07-28T10:25:30.695Z,101699.66
2022-07-28T10:28:19.230Z,101699.56
2022-07-28T10:31:09.589Z,101689.50
2022-07-28T10:33:58.273Z,101687.97
2022-07-28T10:36:44.691Z,101685.44
2022-07-28T10:39:41.274Z,101690.44
2022-07-28T10:42:27.465Z,101697.25
2022-07-28T10:45:13.965Z,101696.41
2022-07-28T10:47:59.832Z,101697.28
2022-07-28T10:50:46.766Z,101687.94
2022-07-28T10:53:47.065Z,101694.16
2022-07-28T10:56:46.421Z,101673.53
2022-07-28T10:59:58.716Z,101667.66
2022-07-28T11:02:52.901Z,101683.63
2022-07-28T11:05:40.599Z,101674.88
2022-07-28T11:08:26.051Z,101686.22
2022-07-28T11:11:11.592Z,101674.41
2022-07-28T11:14:22.729Z,101679.16
2022-07-28T11:17:11.274Z,101665.69
2022-07-28T11:23:46.139Z,101673.53
2022-07-28T11:26:36.608Z,101678.13
2022-07-28T11:29:22.540Z,101671.59
2022-07-28T11:32:08.190Z,101674.84
2022-07-28T11:35:09.733Z,101671.16
2022-07-28T11:38:00.886Z,101659.25
2022-07-28T11:40:48.890Z,101658.47
2022-07-28T11:43:37.000Z,101659.63
2022-07-28T11:46:24.223Z,101639.69
2022-07-28T11:49:18.143Z,101650.72
2022-07-28T11:52:16.815Z,101645.09
2022-07-28T11:55:03.396Z,101643.00
2022-07-28T11:57:52.066Z,101641.50
2022-07-28T12:00:39.297Z,101637.06
2022-07-28T12:03:49.510Z,101641.31
2022-07-28T12:06:42.488Z,101642.13
2022-07-28T12:09:42.033Z,101638.28
2022-07-28T12:12:28.646Z,101628.06
2022-07-28T12:15:17.370Z,101634.75
2022-07-28T12:18:02.714Z,101627.22
2022-07-28T12:20:52.731Z,101638.13
2022-07-28T12:23:45.525Z,101637.34
2022-07-28T12:26:41.296Z,101623.53
2022-07-28T12:29:35.534Z,101612.94
2022-07-28T12:32:30.487Z,101625.19
2022-07-28T12:35:17.224Z,101612.28
2022-07-28T12:38:02.818Z,101606.44
2022-07-28T12:40:48.094Z,101600.06
2022-07-28T12:43:34.219Z,101613.78
2022-07-28T12:46:23.674Z,101624.19
2022-07-28T12:49:21.809Z,101611.09
2022-07-28T12:52:21.802Z,101614.50
2022-07-28T12:55:32.879Z,101617.78
2022-07-28T12:58:26.883Z,101609.97
2022-07-28T13:01:12.865Z,101606.25
2022-07-28T13:03:58.568Z,101589.25
2022-07-28T13:06:55.368Z,101606.16
2022-07-28T13:09:59.956Z,101603.38
2022-07-28T13:13:00.318Z,101609.69
2022-07-28T13:16:05.914Z,101591.38
2022-07-28T13:18:54.092Z,101584.28
2022-07-28T13:21:57.102Z,101597.44
2022-07-28T13:24:44.519Z,101573.22
2022-07-28T13:27:32.254Z,101577.03
2022-07-28T13:30:17.793Z,101580.22
2022-07-28T13:33:03.104Z,101581.19
2022-07-28T13:35:50.270Z,101579.25
2022-07-28T13:38:35.738Z,101559.69
2022-07-28T13:41:21.155Z,101574.00
2022-07-28T13:44:06.750Z,101554.41
2022-07-28T13:46:52.264Z,101566.34
2022-07-28T13:49:37.972Z,101564.91
2022-07-28T13:52:32.852Z,101565.13
2022-07-28T13:55:23.050Z,101547.19
2022-07-28T13:58:09.077Z,101543.44
2022-07-28T14:00:54.600Z,101552.72
2022-07-28T14:03:56.120Z,101554.13
2022-07-28T14:06:44.781Z,101538.16
2022-07-28T14:09:30.517Z,101549.41
2022-07-28T14:12:16.142Z,101544.28
2022-07-28T14:15:01.525Z,101545.81
2022-07-28T14:17:47.289Z,101531.69
2022-07-28T14:20:32.727Z,101542.97
2022-07-28T14:23:18.497Z,101539.41
2022-07-28T14:26:33.244Z,101531.94
2022-07-28T14:29:11.522Z,101537.66
2022-07-28T14:31:59.197Z,101547.81
2022-07-28T14:34:44.847Z,101544.06
2022-07-28T14:37:47.077Z,101518.94
2022-07-28T14:40:39.783Z,101529.88
2022-07-28T14:43:25.751Z,101526.06
2022-07-28T14:46:15.115Z,101525.59
2022-07-28T14:49:03.651Z,101528.69
2022-07-28T14:51:50.317Z,101524.28
2022-07-28T14:54:36.020Z,101520.66
2022-07-28T14:57:24.993Z,101511.50
2022-07-28T15:00:29.758Z,101520.31
2022-07-28T15:03:15.190Z,101521.28
2022-07-28T15:06:01.780Z,101500.97
2022-07-28T15:08:47.206Z,101514.41
2022-07-28T15:11:32.928Z,101501.47
2022-07-28T15:14:20.438Z,101506.81
2022-07-28T15:17:06.895Z,101506.84
2022-07-28T15:19:52.236Z,101492.00
2022-07-28T15:22:37.602Z,101503.31
2022-07-28T15:25:23.100Z,101480.56
2022-07-28T15:28:08.501Z,101498.00
2022-07-28T15:30:54.449Z,101493.47
2022-07-28T15:33:48.217Z,101502.94
2022-07-28T15:36:40.803Z,101496.66
2022-07-28T15:39:26.206Z,101505.03
2022-07-28T15:42:17.065Z,101503.84
2022-07-28T15:45:02.440Z,101503.97
2022-07-28T15:47:47.559Z,101491.56
2022-07-28T15:50:33.089Z,101502.78
2022-07-28T15:53:18.860Z,101504.47
2022-07-28T15:56:05.034Z,101497.22
2022-07-28T15:58:50.641Z,101494.94
2022-07-28T16:01:36.102Z,101494.09
2022-07-28T16:04:21.497Z,101490.88
2022-07-28T16:07:23.324Z,101493.50
2022-07-28T16:10:09.025Z,101502.72
2022-07-28T16:12:55.993Z,101490.72
2022-07-28T16:15:41.581Z,101495.84
2022-07-28T16:18:27.221Z,101476.16
2022-07-28T16:21:12.733Z,101497.41
2022-07-28T16:23:58.267Z,101493.50
2022-07-28T16:26:43.630Z,101486.03
2022-07-28T16:29:29.186Z,101494.63
2022-07-28T16:32:15.195Z,101498.44
2022-07-28T16:35:00.937Z,101490.50
2022-07-28T16:37:46.283Z,101482.66
2022-07-28T16:40:32.513Z,101460.31
2022-07-28T16:43:17.808Z,101479.34
2022-07-28T16:46:04.354Z,101478.50
2022-07-28T16:48:50.059Z,101482.72
2022-07-28T16:51:35.731Z,101480.28
2022-07-28T16:54:21.258Z,101475.59
2022-07-28T16:57:07.228Z,101479.88
2022-07-28T16:59:52.918Z,101485.41
2022-07-28T17:02:38.329Z,101481.56
2022-07-28T17:05:24.771Z,101472.03
2022-07-28T17:08:10.695Z,101474.78
2022-07-28T17:10:56.657Z,101466.75
2022-07-28T17:13:45.410Z,101474.16
2022-07-28T17:16:31.238Z,101465.94
2022-07-28T17:19:21.288Z,101476.22
2022-07-28T17:22:07.342Z,101480.88
2022-07-28T17:24:53.282Z,101479.06
2022-07-28T17:27:43.366Z,101472.75
2022-07-28T17:30:33.439Z,101482.84
2022-07-28T17:33:18.938Z,101482.69
2022-07-28T17:36:04.309Z,101496.38
2022-07-28T17:38:49.897Z,101473.28
2022-07-28T17:41:35.364Z,101488.03
2022-07-28T17:44:21.551Z,101504.94
2022-07-28T17:47:07.364Z,101488.78
2022-07-28T17:49:53.101Z,101499.28
2022-07-28T17:52:41.217Z,101493.81
2022-07-28T17:55:57.601Z,101487.50
2022-07-28T17:58:41.331Z,101496.94
2022-07-28T18:01:26.726Z,101491.56
2022-07-28T18:04:12.314Z,101493.34
2022-07-28T18:06:58.121Z,101487.34
2022-07-28T18:09:43.417Z,101489.94
2022-07-28T18:12:28.977Z,101505.84
2022-07-28T18:15:14.519Z,101495.50
2022-07-28T18:18:00.437Z,101506.91
2022-07-28T18:20:46.863Z,101493.84
2022-07-28T18:23:32.155Z,101495.47
2022-07-28T18:26:17.807Z,101486.53
2022-07-28T18:29:03.510Z,101505.09
2022-07-28T18:31:50.544Z,101495.91
2022-07-28T18:34:36.059Z,101506.25
2022-07-28T18:37:21.510Z,101492.41
2022-07-28T18:40:09.191Z,101487.00
2022-07-28T18:42:55.621Z,101504.59
2022-07-28T18:45:41.320Z,101481.34
2022-07-28T18:48:26.815Z,101497.53
2022-07-28T18:51:12.190Z,101494.38
2022-07-28T18:53:57.707Z,101484.28
2022-07-28T18:56:43.451Z,101503.44
2022-07-28T18:59:29.005Z,101490.84
2022-07-28T19:02:14.888Z,101513.38
2022-07-28T19:05:00.646Z,101514.31
2022-07-28T19:07:46.502Z,101511.97
2022-07-28T19:10:32.594Z,101502.34
2022-07-28T19:13:18.225Z,101510.00
2022-07-28T19:16:04.174Z,101501.00
2022-07-28T19:18:50.014Z,101514.66
2022-07-28T19:21:35.697Z,101500.78
2022-07-28T19:24:21.433Z,101514.22
2022-07-28T19:27:07.105Z,101521.19
2022-07-28T19:29:52.521Z,101519.81
2022-07-28T19:32:41.884Z,101515.09
2022-07-28T19:35:27.310Z,101513.19
2022-07-28T19:38:13.045Z,101524.94
2022-07-28T19:40:58.549Z,101520.00
2022-07-28T19:43:43.975Z,101531.50
2022-07-28T19:46:29.663Z,101510.13
2022-07-28T19:49:16.814Z,101518.34
2022-07-28T19:52:02.594Z,101518.34
2022-07-28T19:54:51.143Z,101531.13
2022-07-28T19:57:36.789Z,101527.81
2022-07-28T20:00:22.462Z,101541.28
2022-07-28T20:03:13.477Z,101540.63
2022-07-28T20:06:14.379Z,101547.22
2022-07-28T20:09:01.490Z,101537.78
2022-07-28T20:11:47.950Z,101538.00
2022-07-28T20:14:33.373Z,101532.66
2022-07-28T20:17:37.001Z,101535.59
2022-07-28T20:20:23.540Z,101545.94
2022-07-28T20:23:08.999Z,101539.97
2022-07-28T20:25:54.555Z,101549.94
2022-07-28T20:28:40.306Z,101564.16
2022-07-28T20:31:25.971Z,101550.06
2022-07-28T20:34:12.994Z,101566.75
2022-07-28T20:36:58.624Z,101566.91
2022-07-28T20:39:45.425Z,101570.06
2022-07-28T20:42:31.568Z,101552.44
2022-07-28T20:45:17.065Z,101568.81
2022-07-28T20:48:02.667Z,101565.81
2022-07-28T20:50:48.080Z,101568.47
2022-07-28T20:53:33.910Z,101574.50
2022-07-28T20:56:19.613Z,101581.44
2022-07-28T20:59:08.044Z,101581.03
2022-07-28T21:01:53.594Z,101589.81
2022-07-28T21:04:39.858Z,101570.22
2022-07-28T21:08:00.459Z,101578.81
2022-07-28T21:10:30.882Z,101587.13
2022-07-28T21:13:16.478Z,101588.38
2022-07-28T21:16:02.264Z,101593.66
2022-07-28T21:18:47.859Z,101582.75
2022-07-28T21:21:33.252Z,101591.66
2022-07-28T21:24:19.140Z,101604.97
2022-07-28T21:27:04.802Z,101591.75
2022-07-28T21:32:36.285Z,101597.03
2022-07-28T21:35:22.160Z,101601.16
2022-07-28T21:38:07.721Z,101595.69
2022-07-28T21:40:52.974Z,101605.53
2022-07-28T21:43:38.580Z,101595.09
2022-07-28T21:46:25.592Z,101589.69
2022-07-28T21:49:11.432Z,101597.34
2022-07-28T21:51:57.029Z,101605.63
2022-07-28T21:54:42.690Z,101584.38
2022-07-28T21:57:28.362Z,101605.38
2022-07-28T22:00:14.348Z,101611.88
2022-07-28T22:03:00.391Z,101603.66
2022-07-28T22:05:45.954Z,101611.53
2022-07-28T22:08:32.401Z,101602.75
2022-07-28T22:11:17.844Z,101607.75
2022-07-28T22:14:03.253Z,101609.72
2022-07-28T22:16:48.911Z,101600.59
2022-07-28T22:19:34.844Z,101610.59
2022-07-28T22:22:20.217Z,101601.13
2022-07-28T22:25:06.718Z,101612.97
2022-07-28T22:27:52.532Z,101604.44
2022-07-28T22:30:38.262Z,101610.31
2022-07-28T22:33:24.517Z,101615.25
2022-07-28T22:36:09.889Z,101612.47
2022-07-28T22:38:55.422Z,101632.72
2022-07-28T22:41:40.968Z,101625.78
2022-07-28T22:44:29.303Z,101626.97
2022-07-28T22:47:14.787Z,101640.66
2022-07-28T22:50:00.454Z,101634.34
2022-07-28T22:52:46.445Z,101646.19
2022-07-28T22:55:32.235Z,101622.72
2022-07-28T22:58:17.500Z,101640.97
2022-07-28T23:01:03.985Z,101648.38
2022-07-28T23:03:52.253Z,101637.25
2022-07-28T23:06:37.954Z,101647.06
2022-07-28T23:09:23.608Z,101647.84
2022-07-28T23:12:10.025Z,101651.88
2022-07-28T23:14:55.348Z,101659.03
2022-07-28T23:17:41.084Z,101647.22
2022-07-28T23:20:27.239Z,101656.91
2022-07-28T23:23:14.159Z,101666.09
2022-07-28T23:25:59.520Z,101663.69
2022-07-28T23:28:45.093Z,101671.16
2022-07-28T23:31:30.738Z,101649.78
2022-07-28T23:34:16.779Z,101654.91
2022-07-28T23:37:03.289Z,101657.13
2022-07-28T23:39:48.762Z,101649.53
2022-07-28T23:42:34.031Z,101641.91
2022-07-28T23:45:19.760Z,101645.50
2022-07-28T23:48:05.610Z,101666.31
2022-07-28T23:50:51.168Z,101662.97
2022-07-28T23:53:37.636Z,101661.53
2022-07-28T23:56:23.200Z,101650.28
2022-07-28T23:59:13.531Z,101636.53
